sensor_id;sensor_type;location;lat;lon;timestamp;P1;durP1;ratioP1;P2;durP2;ratioP2
27424;SDS011;15244;49.088;11.886;2023-03-04T00:04:40;6.50;;;4.82;;
27424;SDS011;15244;49.088;11.886;2023-03-04T00:09:44;10.70;;;5.32;;
27424;SDS011;15244;49.088;11.886;2023-03-04T00:14:47;8.80;;;5.18;;
27424;SDS011;15244;49.088;11.886;2023-03-04T00:19:48;6.82;;;4.60;;
27424;SDS011;15244;49.088;11.886;2023-03-04T00:24:50;5.68;;;4.57;;
27424;SDS011;15244;49.088;11.886;2023-03-04T00:29:51;6.55;;;4.45;;
27424;SDS011;15244;49.088;11.886;2023-03-04T00:34:53;5.22;;;4.28;;
27424;SDS011;15244;49.088;11.886;2023-03-04T00:39:55;6.30;;;5.00;;
27424;SDS011;15244;49.088;11.886;2023-03-04T00:44:56;6.90;;;5.10;;
27424;SDS011;15244;49.088;11.886;2023-03-04T00:49:58;5.65;;;4.82;;
27424;SDS011;15244;49.088;11.886;2023-03-04T00:55:00;6.65;;;4.55;;
27424;SDS011;15244;49.088;11.886;2023-03-04T01:00:02;7.78;;;4.80;;
27424;SDS011;15244;49.088;11.886;2023-03-04T01:05:05;8.75;;;5.20;;
27424;SDS011;15244;49.088;11.886;2023-03-04T01:10:08;9.10;;;5.20;;
27424;SDS011;15244;49.088;11.886;2023-03-04T01:15:12;7.40;;;5.40;;
27424;SDS011;15244;49.088;11.886;2023-03-04T01:20:14;6.45;;;5.55;;
27424;SDS011;15244;49.088;11.886;2023-03-04T01:25:16;7.13;;;5.28;;
27424;SDS011;15244;49.088;11.886;2023-03-04T01:30:18;9.30;;;5.60;;
27424;SDS011;15244;49.088;11.886;2023-03-04T01:35:20;10.73;;;6.95;;
27424;SDS011;15244;49.088;11.886;2023-03-04T01:40:21;10.02;;;6.78;;
27424;SDS011;15244;49.088;11.886;2023-03-04T01:45:23;10.90;;;7.35;;
27424;SDS011;15244;49.088;11.886;2023-03-04T01:50:27;10.07;;;7.47;;
27424;SDS011;15244;49.088;11.886;2023-03-04T01:55:32;12.95;;;8.23;;
27424;SDS011;15244;49.088;11.886;2023-03-04T02:00:34;12.60;;;8.10;;
27424;SDS011;15244;49.088;11.886;2023-03-04T02:05:39;12.98;;;8.80;;
27424;SDS011;15244;49.088;11.886;2023-03-04T02:10:44;12.38;;;8.32;;
27424;SDS011;15244;49.088;11.886;2023-03-04T02:15:46;12.70;;;8.65;;
27424;SDS011;15244;49.088;11.886;2023-03-04T02:26:19;18.70;;;10.63;;
27424;SDS011;15244;49.088;11.886;2023-03-04T02:31:41;16.95;;;10.20;;
27424;SDS011;15244;49.088;11.886;2023-03-04T02:36:45;17.05;;;9.98;;
27424;SDS011;15244;49.088;11.886;2023-03-04T02:41:50;15.18;;;10.07;;
27424;SDS011;15244;49.088;11.886;2023-03-04T02:46:55;17.15;;;11.15;;
27424;SDS011;15244;49.088;11.886;2023-03-04T02:57:10;16.70;;;10.70;;
27424;SDS011;15244;49.088;11.886;2023-03-04T03:02:15;23.95;;;12.88;;
27424;SDS011;15244;49.088;11.886;2023-03-04T03:07:16;22.08;;;12.65;;
27424;SDS011;15244;49.088;11.886;2023-03-04T03:12:18;19.35;;;12.02;;
27424;SDS011;15244;49.088;11.886;2023-03-04T03:17:20;22.35;;;13.45;;
27424;SDS011;15244;49.088;11.886;2023-03-04T03:22:22;27.30;;;14.30;;
27424;SDS011;15244;49.088;11.886;2023-03-04T03:27:23;25.35;;;14.25;;
27424;SDS011;15244;49.088;11.886;2023-03-04T03:32:26;26.00;;;15.05;;
27424;SDS011;15244;49.088;11.886;2023-03-04T03:37:28;22.23;;;13.55;;
27424;SDS011;15244;49.088;11.886;2023-03-04T03:42:29;20.30;;;13.02;;
27424;SDS011;15244;49.088;11.886;2023-03-04T03:47:31;21.25;;;12.20;;
27424;SDS011;15244;49.088;11.886;2023-03-04T03:52:32;19.67;;;12.27;;
27424;SDS011;15244;49.088;11.886;2023-03-04T03:57:34;19.13;;;12.43;;
27424;SDS011;15244;49.088;11.886;2023-03-04T04:02:36;21.77;;;11.43;;
27424;SDS011;15244;49.088;11.886;2023-03-04T04:07:38;22.05;;;11.85;;
27424;SDS011;15244;49.088;11.886;2023-03-04T04:12:39;20.88;;;12.52;;
27424;SDS011;15244;49.088;11.886;2023-03-04T04:17:41;22.10;;;12.90;;
27424;SDS011;15244;49.088;11.886;2023-03-04T04:22:42;19.40;;;12.75;;
27424;SDS011;15244;49.088;11.886;2023-03-04T04:27:44;20.83;;;12.63;;
27424;SDS011;15244;49.088;11.886;2023-03-04T04:32:45;21.65;;;12.50;;
27424;SDS011;15244;49.088;11.886;2023-03-04T04:37:47;20.90;;;12.18;;
27424;SDS011;15244;49.088;11.886;2023-03-04T04:42:48;22.02;;;13.20;;
27424;SDS011;15244;49.088;11.886;2023-03-04T04:47:50;23.77;;;13.13;;
27424;SDS011;15244;49.088;11.886;2023-03-04T04:52:53;22.63;;;12.95;;
27424;SDS011;15244;49.088;11.886;2023-03-04T04:57:54;24.98;;;13.60;;
27424;SDS011;15244;49.088;11.886;2023-03-04T05:02:56;22.85;;;13.98;;
27424;SDS011;15244;49.088;11.886;2023-03-04T05:07:58;25.90;;;13.65;;
27424;SDS011;15244;49.088;11.886;2023-03-04T05:12:59;19.58;;;12.20;;
27424;SDS011;15244;49.088;11.886;2023-03-04T05:18:01;25.45;;;14.18;;
27424;SDS011;15244;49.088;11.886;2023-03-04T05:23:02;23.05;;;12.70;;
27424;SDS011;15244;49.088;11.886;2023-03-04T05:28:04;21.52;;;13.95;;
27424;SDS011;15244;49.088;11.886;2023-03-04T05:33:07;18.10;;;11.90;;
27424;SDS011;15244;49.088;11.886;2023-03-04T05:38:11;18.98;;;13.13;;
27424;SDS011;15244;49.088;11.886;2023-03-04T05:43:13;19.40;;;12.65;;
27424;SDS011;15244;49.088;11.886;2023-03-04T05:48:15;20.20;;;11.70;;
27424;SDS011;15244;49.088;11.886;2023-03-04T05:53:17;19.98;;;12.25;;
27424;SDS011;15244;49.088;11.886;2023-03-04T05:58:19;21.45;;;13.15;;
27424;SDS011;15244;49.088;11.886;2023-03-04T06:03:21;21.55;;;12.32;;
27424;SDS011;15244;49.088;11.886;2023-03-04T06:08:23;20.70;;;13.15;;
27424;SDS011;15244;49.088;11.886;2023-03-04T06:13:25;23.20;;;13.10;;
27424;SDS011;15244;49.088;11.886;2023-03-04T06:18:27;20.50;;;13.32;;
27424;SDS011;15244;49.088;11.886;2023-03-04T06:23:30;22.00;;;13.20;;
27424;SDS011;15244;49.088;11.886;2023-03-04T06:28:31;21.88;;;13.00;;
27424;SDS011;15244;49.088;11.886;2023-03-04T06:33:33;23.55;;;14.05;;
27424;SDS011;15244;49.088;11.886;2023-03-04T06:38:34;22.52;;;13.07;;
27424;SDS011;15244;49.088;11.886;2023-03-04T06:43:36;25.13;;;14.52;;
27424;SDS011;15244;49.088;11.886;2023-03-04T06:48:38;28.83;;;15.52;;
27424;SDS011;15244;49.088;11.886;2023-03-04T06:53:40;27.17;;;16.73;;
27424;SDS011;15244;49.088;11.886;2023-03-04T06:58:43;27.40;;;15.40;;
27424;SDS011;15244;49.088;11.886;2023-03-04T07:03:46;23.75;;;14.90;;
27424;SDS011;15244;49.088;11.886;2023-03-04T07:08:48;22.15;;;13.13;;
27424;SDS011;15244;49.088;11.886;2023-03-04T07:13:50;18.73;;;12.40;;
27424;SDS011;15244;49.088;11.886;2023-03-04T07:18:51;18.55;;;12.57;;
27424;SDS011;15244;49.088;11.886;2023-03-04T07:23:53;17.05;;;11.88;;
27424;SDS011;15244;49.088;11.886;2023-03-04T07:28:54;18.20;;;10.82;;
27424;SDS011;15244;49.088;11.886;2023-03-04T07:33:59;18.92;;;11.05;;
27424;SDS011;15244;49.088;11.886;2023-03-04T07:39:06;20.05;;;11.35;;
27424;SDS011;15244;49.088;11.886;2023-03-04T07:44:09;15.80;;;11.02;;
27424;SDS011;15244;49.088;11.886;2023-03-04T07:49:13;18.42;;;11.65;;
27424;SDS011;15244;49.088;11.886;2023-03-04T07:54:15;17.98;;;11.20;;
27424;SDS011;15244;49.088;11.886;2023-03-04T07:59:17;17.90;;;11.25;;
27424;SDS011;15244;49.088;11.886;2023-03-04T08:04:18;16.95;;;11.23;;
27424;SDS011;15244;49.088;11.886;2023-03-04T08:09:20;15.68;;;10.45;;
27424;SDS011;15244;49.088;11.886;2023-03-04T08:14:22;17.63;;;11.02;;
27424;SDS011;15244;49.088;11.886;2023-03-04T08:19:24;18.40;;;10.52;;
27424;SDS011;15244;49.088;11.886;2023-03-04T08:24:26;15.13;;;9.60;;
27424;SDS011;15244;49.088;11.886;2023-03-04T08:29:28;17.80;;;10.25;;
27424;SDS011;15244;49.088;11.886;2023-03-04T08:34:29;17.55;;;10.45;;
27424;SDS011;15244;49.088;11.886;2023-03-04T08:39:31;16.27;;;10.30;;
27424;SDS011;15244;49.088;11.886;2023-03-04T08:44:35;13.38;;;8.70;;
27424;SDS011;15244;49.088;11.886;2023-03-04T08:49:37;16.05;;;10.07;;
27424;SDS011;15244;49.088;11.886;2023-03-04T08:54:39;14.18;;;8.85;;
27424;SDS011;15244;49.088;11.886;2023-03-04T08:59:40;19.08;;;10.05;;
27424;SDS011;15244;49.088;11.886;2023-03-04T09:04:42;15.45;;;10.02;;
27424;SDS011;15244;49.088;11.886;2023-03-04T09:09:43;14.70;;;9.52;;
27424;SDS011;15244;49.088;11.886;2023-03-04T09:14:45;16.35;;;9.45;;
27424;SDS011;15244;49.088;11.886;2023-03-04T09:19:55;19.48;;;11.50;;
27424;SDS011;15244;49.088;11.886;2023-03-04T09:24:57;17.02;;;11.02;;
27424;SDS011;15244;49.088;11.886;2023-03-04T09:29:59;20.25;;;10.77;;
27424;SDS011;15244;49.088;11.886;2023-03-04T09:35:00;18.55;;;10.65;;
27424;SDS011;15244;49.088;11.886;2023-03-04T09:40:02;20.13;;;12.30;;
27424;SDS011;15244;49.088;11.886;2023-03-04T09:45:05;22.52;;;12.05;;
27424;SDS011;15244;49.088;11.886;2023-03-04T09:50:08;16.70;;;10.95;;
27424;SDS011;15244;49.088;11.886;2023-03-04T09:55:20;23.88;;;12.55;;
27424;SDS011;15244;49.088;11.886;2023-03-04T10:00:51;21.42;;;12.65;;
27424;SDS011;15244;49.088;11.886;2023-03-04T10:06:01;22.08;;;12.45;;
27424;SDS011;15244;49.088;11.886;2023-03-04T10:16:18;23.20;;;12.70;;
27424;SDS011;15244;49.088;11.886;2023-03-04T10:21:29;25.75;;;14.13;;
27424;SDS011;15244;49.088;11.886;2023-03-04T10:26:37;24.00;;;12.75;;
27424;SDS011;15244;49.088;11.886;2023-03-04T10:31:39;23.75;;;13.32;;
27424;SDS011;15244;49.088;11.886;2023-03-04T10:37:01;24.13;;;13.43;;
27424;SDS011;15244;49.088;11.886;2023-03-04T10:47:15;26.13;;;14.65;;
27424;SDS011;15244;49.088;11.886;2023-03-04T10:57:34;26.95;;;14.20;;
27424;SDS011;15244;49.088;11.886;2023-03-04T11:02:39;23.27;;;14.40;;
27424;SDS011;15244;49.088;11.886;2023-03-04T11:07:41;26.67;;;14.35;;
27424;SDS011;15244;49.088;11.886;2023-03-04T11:13:00;23.40;;;14.50;;
27424;SDS011;15244;49.088;11.886;2023-03-04T11:18:11;29.92;;;17.10;;
27424;SDS011;15244;49.088;11.886;2023-03-04T11:23:15;26.23;;;14.93;;
27424;SDS011;15244;49.088;11.886;2023-03-04T11:28:21;30.25;;;15.75;;
27424;SDS011;15244;49.088;11.886;2023-03-04T11:33:43;24.80;;;14.50;;
27424;SDS011;15244;49.088;11.886;2023-03-04T11:38:53;26.33;;;16.03;;
27424;SDS011;15244;49.088;11.886;2023-03-04T11:43:57;27.65;;;16.13;;
27424;SDS011;15244;49.088;11.886;2023-03-04T12:00:44;30.45;;;17.25;;
27424;SDS011;15244;49.088;11.886;2023-03-04T12:05:28;26.73;;;16.33;;
27424;SDS011;15244;49.088;11.886;2023-03-04T12:11:01;27.15;;;16.33;;
27424;SDS011;15244;49.088;11.886;2023-03-04T12:21:22;26.48;;;16.98;;
27424;SDS011;15244;49.088;11.886;2023-03-04T12:26:30;29.27;;;16.88;;
27424;SDS011;15244;49.088;11.886;2023-03-04T12:47:22;31.35;;;16.77;;
27424;SDS011;15244;49.088;11.886;2023-03-04T12:57:45;25.23;;;15.68;;
27424;SDS011;15244;49.088;11.886;2023-03-04T13:03:02;28.45;;;17.80;;
27424;SDS011;15244;49.088;11.886;2023-03-04T13:08:24;28.50;;;15.65;;
27424;SDS011;15244;49.088;11.886;2023-03-04T13:13:59;23.65;;;15.00;;
27424;SDS011;15244;49.088;11.886;2023-03-04T13:24:47;28.60;;;16.00;;
27424;SDS011;15244;49.088;11.886;2023-03-04T13:29:51;27.98;;;16.55;;
27424;SDS011;15244;49.088;11.886;2023-03-04T13:34:53;28.17;;;15.35;;
27424;SDS011;15244;49.088;11.886;2023-03-04T13:45:35;24.75;;;15.02;;
27424;SDS011;15244;49.088;11.886;2023-03-04T13:50:45;26.40;;;15.27;;
27424;SDS011;15244;49.088;11.886;2023-03-04T14:01:28;21.73;;;14.18;;
27424;SDS011;15244;49.088;11.886;2023-03-04T14:06:34;27.08;;;15.90;;
27424;SDS011;15244;49.088;11.886;2023-03-04T14:11:42;24.40;;;14.85;;
27424;SDS011;15244;49.088;11.886;2023-03-04T14:16:48;26.58;;;15.95;;
27424;SDS011;15244;49.088;11.886;2023-03-04T14:21:52;24.13;;;14.75;;
27424;SDS011;15244;49.088;11.886;2023-03-04T14:27:15;23.55;;;15.65;;
27424;SDS011;15244;49.088;11.886;2023-03-04T14:32:17;22.83;;;14.02;;
27424;SDS011;15244;49.088;11.886;2023-03-04T14:37:26;24.95;;;15.73;;
27424;SDS011;15244;49.088;11.886;2023-03-04T14:42:36;28.15;;;15.80;;
27424;SDS011;15244;49.088;11.886;2023-03-04T14:47:43;25.75;;;16.25;;
27424;SDS011;15244;49.088;11.886;2023-03-04T14:52:48;25.75;;;14.27;;
27424;SDS011;15244;49.088;11.886;2023-03-04T14:58:05;32.47;;;18.67;;
27424;SDS011;15244;49.088;11.886;2023-03-04T15:08:59;32.05;;;23.73;;
27424;SDS011;15244;49.088;11.886;2023-03-04T15:14:03;25.70;;;16.35;;
27424;SDS011;15244;49.088;11.886;2023-03-04T15:19:19;29.17;;;19.52;;
27424;SDS011;15244;49.088;11.886;2023-03-04T15:24:25;23.77;;;14.15;;
27424;SDS011;15244;49.088;11.886;2023-03-04T15:29:27;28.08;;;17.85;;
27424;SDS011;15244;49.088;11.886;2023-03-04T15:34:29;21.63;;;14.15;;
27424;SDS011;15244;49.088;11.886;2023-03-04T15:39:31;22.10;;;14.13;;
27424;SDS011;15244;49.088;11.886;2023-03-04T15:44:33;19.35;;;13.07;;
27424;SDS011;15244;49.088;11.886;2023-03-04T15:49:34;18.65;;;12.27;;
27424;SDS011;15244;49.088;11.886;2023-03-04T15:54:36;18.23;;;13.57;;
27424;SDS011;15244;49.088;11.886;2023-03-04T15:59:37;19.23;;;13.43;;
27424;SDS011;15244;49.088;11.886;2023-03-04T16:04:39;19.90;;;12.73;;
27424;SDS011;15244;49.088;11.886;2023-03-04T16:09:41;18.77;;;13.30;;
27424;SDS011;15244;49.088;11.886;2023-03-04T16:14:42;22.48;;;13.82;;
27424;SDS011;15244;49.088;11.886;2023-03-04T16:19:47;22.98;;;12.85;;
27424;SDS011;15244;49.088;11.886;2023-03-04T16:24:48;19.35;;;13.60;;
27424;SDS011;15244;49.088;11.886;2023-03-04T16:29:51;25.50;;;15.73;;
27424;SDS011;15244;49.088;11.886;2023-03-04T16:34:53;21.98;;;14.20;;
27424;SDS011;15244;49.088;11.886;2023-03-04T16:39:55;17.17;;;13.13;;
27424;SDS011;15244;49.088;11.886;2023-03-04T16:44:57;18.65;;;13.85;;
27424;SDS011;15244;49.088;11.886;2023-03-04T16:49:58;26.20;;;16.52;;
27424;SDS011;15244;49.088;11.886;2023-03-04T16:55:00;19.55;;;13.15;;
27424;SDS011;15244;49.088;11.886;2023-03-04T17:00:02;23.80;;;14.70;;
27424;SDS011;15244;49.088;11.886;2023-03-04T17:05:06;21.15;;;14.55;;
27424;SDS011;15244;49.088;11.886;2023-03-04T17:10:12;21.27;;;14.30;;
27424;SDS011;15244;49.088;11.886;2023-03-04T17:15:14;23.15;;;13.68;;
27424;SDS011;15244;49.088;11.886;2023-03-04T17:20:16;19.73;;;13.80;;
27424;SDS011;15244;49.088;11.886;2023-03-04T17:25:19;21.95;;;13.57;;
27424;SDS011;15244;49.088;11.886;2023-03-04T17:30:20;25.30;;;14.02;;
27424;SDS011;15244;49.088;11.886;2023-03-04T17:35:22;23.98;;;14.63;;
27424;SDS011;15244;49.088;11.886;2023-03-04T17:40:26;22.70;;;13.77;;
27424;SDS011;15244;49.088;11.886;2023-03-04T17:45:27;22.92;;;14.70;;
27424;SDS011;15244;49.088;11.886;2023-03-04T17:50:28;22.70;;;14.48;;
27424;SDS011;15244;49.088;11.886;2023-03-04T17:55:30;18.50;;;13.32;;
27424;SDS011;15244;49.088;11.886;2023-03-04T18:00:31;20.92;;;13.70;;
27424;SDS011;15244;49.088;11.886;2023-03-04T18:05:33;18.63;;;12.75;;
27424;SDS011;15244;49.088;11.886;2023-03-04T18:10:35;21.58;;;13.63;;
27424;SDS011;15244;49.088;11.886;2023-03-04T18:15:36;20.67;;;12.75;;
27424;SDS011;15244;49.088;11.886;2023-03-04T18:20:38;21.02;;;13.05;;
27424;SDS011;15244;49.088;11.886;2023-03-04T18:25:40;23.70;;;13.57;;
27424;SDS011;15244;49.088;11.886;2023-03-04T18:30:41;20.90;;;13.40;;
27424;SDS011;15244;49.088;11.886;2023-03-04T18:35:43;22.60;;;13.63;;
27424;SDS011;15244;49.088;11.886;2023-03-04T18:40:44;21.77;;;13.93;;
27424;SDS011;15244;49.088;11.886;2023-03-04T18:45:46;22.77;;;12.77;;
27424;SDS011;15244;49.088;11.886;2023-03-04T18:50:48;19.60;;;13.10;;
27424;SDS011;15244;49.088;11.886;2023-03-04T18:55:53;19.08;;;12.85;;
27424;SDS011;15244;49.088;11.886;2023-03-04T19:00:57;19.15;;;12.43;;
27424;SDS011;15244;49.088;11.886;2023-03-04T19:06:00;22.27;;;12.65;;
27424;SDS011;15244;49.088;11.886;2023-03-04T19:11:02;18.50;;;12.38;;
27424;SDS011;15244;49.088;11.886;2023-03-04T19:16:06;18.55;;;12.15;;
27424;SDS011;15244;49.088;11.886;2023-03-04T19:21:07;17.60;;;12.80;;
27424;SDS011;15244;49.088;11.886;2023-03-04T19:26:09;18.20;;;11.43;;
27424;SDS011;15244;49.088;11.886;2023-03-04T19:31:13;17.85;;;12.10;;
27424;SDS011;15244;49.088;11.886;2023-03-04T19:36:15;19.52;;;12.38;;
27424;SDS011;15244;49.088;11.886;2023-03-04T19:41:17;20.38;;;11.75;;
27424;SDS011;15244;49.088;11.886;2023-03-04T19:46:18;21.05;;;12.55;;
27424;SDS011;15244;49.088;11.886;2023-03-04T19:51:22;27.15;;;12.95;;
27424;SDS011;15244;49.088;11.886;2023-03-04T19:56:26;19.50;;;11.98;;
27424;SDS011;15244;49.088;11.886;2023-03-04T20:01:29;19.40;;;11.55;;
27424;SDS011;15244;49.088;11.886;2023-03-04T20:06:36;24.10;;;11.95;;
27424;SDS011;15244;49.088;11.886;2023-03-04T20:11:40;18.08;;;12.43;;
27424;SDS011;15244;49.088;11.886;2023-03-04T20:16:58;17.67;;;12.23;;
27424;SDS011;15244;49.088;11.886;2023-03-04T20:22:02;20.40;;;12.63;;
27424;SDS011;15244;49.088;11.886;2023-03-04T20:27:05;18.88;;;11.40;;
27424;SDS011;15244;49.088;11.886;2023-03-04T20:32:07;20.90;;;11.35;;
27424;SDS011;15244;49.088;11.886;2023-03-04T20:37:09;16.08;;;12.20;;
27424;SDS011;15244;49.088;11.886;2023-03-04T20:42:11;22.55;;;11.93;;
27424;SDS011;15244;49.088;11.886;2023-03-04T20:47:12;18.25;;;11.55;;
27424;SDS011;15244;49.088;11.886;2023-03-04T20:52:14;20.50;;;12.43;;
27424;SDS011;15244;49.088;11.886;2023-03-04T20:57:16;21.08;;;11.95;;
27424;SDS011;15244;49.088;11.886;2023-03-04T21:02:17;20.73;;;12.35;;
27424;SDS011;15244;49.088;11.886;2023-03-04T21:07:20;24.23;;;12.55;;
27424;SDS011;15244;49.088;11.886;2023-03-04T21:12:22;16.38;;;11.77;;
27424;SDS011;15244;49.088;11.886;2023-03-04T21:17:24;20.33;;;11.88;;
27424;SDS011;15244;49.088;11.886;2023-03-04T21:22:25;23.13;;;13.32;;
27424;SDS011;15244;49.088;11.886;2023-03-04T21:27:27;19.13;;;12.52;;
27424;SDS011;15244;49.088;11.886;2023-03-04T21:32:29;18.02;;;11.80;;
27424;SDS011;15244;49.088;11.886;2023-03-04T21:37:30;16.15;;;11.60;;
27424;SDS011;15244;49.088;11.886;2023-03-04T21:42:32;18.98;;;12.85;;
27424;SDS011;15244;49.088;11.886;2023-03-04T21:47:34;19.70;;;12.82;;
27424;SDS011;15244;49.088;11.886;2023-03-04T21:52:35;20.58;;;12.80;;
27424;SDS011;15244;49.088;11.886;2023-03-04T21:57:37;19.25;;;12.45;;
27424;SDS011;15244;49.088;11.886;2023-03-04T22:02:38;20.10;;;13.32;;
27424;SDS011;15244;49.088;11.886;2023-03-04T22:07:40;19.58;;;13.93;;
27424;SDS011;15244;49.088;11.886;2023-03-04T22:12:41;23.80;;;14.10;;
27424;SDS011;15244;49.088;11.886;2023-03-04T22:17:43;21.95;;;14.15;;
27424;SDS011;15244;49.088;11.886;2023-03-04T22:22:46;25.35;;;14.35;;
27424;SDS011;15244;49.088;11.886;2023-03-04T22:27:47;37.40;;;17.70;;
27424;SDS011;15244;49.088;11.886;2023-03-04T22:32:49;35.88;;;17.35;;
27424;SDS011;15244;49.088;11.886;2023-03-04T22:37:51;28.02;;;14.55;;
27424;SDS011;15244;49.088;11.886;2023-03-04T22:42:52;29.55;;;16.73;;
27424;SDS011;15244;49.088;11.886;2023-03-04T22:47:54;31.65;;;17.58;;
27424;SDS011;15244;49.088;11.886;2023-03-04T22:52:56;32.47;;;16.70;;
27424;SDS011;15244;49.088;11.886;2023-03-04T22:57:57;35.75;;;17.13;;
27424;SDS011;15244;49.088;11.886;2023-03-04T23:02:59;36.15;;;19.40;;
27424;SDS011;15244;49.088;11.886;2023-03-04T23:08:00;27.98;;;16.42;;
27424;SDS011;15244;49.088;11.886;2023-03-04T23:13:02;25.75;;;15.77;;
27424;SDS011;15244;49.088;11.886;2023-03-04T23:18:04;31.35;;;16.60;;
27424;SDS011;15244;49.088;11.886;2023-03-04T23:23:05;25.63;;;16.95;;
27424;SDS011;15244;49.088;11.886;2023-03-04T23:28:07;31.90;;;18.13;;
27424;SDS011;15244;49.088;11.886;2023-03-04T23:33:09;28.23;;;17.77;;
27424;SDS011;15244;49.088;11.886;2023-03-04T23:38:10;30.38;;;18.15;;
27424;SDS011;15244;49.088;11.886;2023-03-04T23:43:12;29.52;;;17.52;;
27424;SDS011;15244;49.088;11.886;2023-03-04T23:48:13;34.20;;;19.98;;
27424;SDS011;15244;49.088;11.886;2023-03-04T23:53:15;31.38;;;18.88;;
27424;SDS011;15244;49.088;11.886;2023-03-04T23:58:18;31.67;;;18.88;;
